createdAt,value
2019-05-11T00:02:24.532Z,9.92
2019-05-11T00:04:54.569Z,9.95
2019-05-11T00:07:24.182Z,9.87
2019-05-11T00:09:58.415Z,9.90
2019-05-11T00:12:27.560Z,9.89
2019-05-11T00:14:57.586Z,9.78
2019-05-11T00:17:27.307Z,9.70
2019-05-11T00:19:56.871Z,9.64
2019-05-11T00:22:26.879Z,9.66
2019-05-11T00:24:56.896Z,9.66
2019-05-11T00:27:26.743Z,9.66
2019-05-11T00:29:56.782Z,9.59
2019-05-11T00:32:26.460Z,9.59
2019-05-11T00:34:56.524Z,9.53
2019-05-11T00:37:26.644Z,9.55
2019-05-11T00:39:56.543Z,9.55
2019-05-11T00:42:26.370Z,9.54
2019-05-11T00:44:56.446Z,9.57
2019-05-11T00:47:26.022Z,9.55
2019-05-11T00:49:55.705Z,9.57
2019-05-11T00:52:25.467Z,9.50
2019-05-11T00:54:54.981Z,9.47
2019-05-11T00:57:24.562Z,9.50
2019-05-11T00:59:54.540Z,9.49
2019-05-11T01:02:24.505Z,9.45
2019-05-11T01:04:54.139Z,9.36
2019-05-11T01:07:23.962Z,9.33
2019-05-11T01:09:53.662Z,9.41
2019-05-11T01:12:23.406Z,9.36
2019-05-11T01:14:53.300Z,9.30
2019-05-11T01:17:23.573Z,9.22
2019-05-11T01:19:53.146Z,9.20
2019-05-11T01:22:23.316Z,9.23
2019-05-11T01:24:52.853Z,9.25
2019-05-11T01:27:22.652Z,9.29
2019-05-11T01:29:52.434Z,8.48
2019-05-11T01:32:21.998Z,9.18
2019-05-11T01:34:52.158Z,9.22
2019-05-11T01:37:22.414Z,9.23
2019-05-11T01:39:51.928Z,9.16
2019-05-11T01:42:24.420Z,9.13
2019-05-11T01:44:55.152Z,9.04
2019-05-11T01:47:25.523Z,9.08
2019-05-11T01:49:55.147Z,9.05
2019-05-11T01:52:24.891Z,9.07
2019-05-11T01:54:54.757Z,9.09
2019-05-11T01:57:24.439Z,9.09
2019-05-11T01:59:58.217Z,9.12
2019-05-11T02:02:27.955Z,9.09
2019-05-11T02:05:17.989Z,9.09
2019-05-11T02:07:47.867Z,9.06
2019-05-11T02:10:17.428Z,8.99
2019-05-11T02:12:49.071Z,8.96
2019-05-11T02:15:20.501Z,9.00
2019-05-11T02:17:50.458Z,9.00
2019-05-11T02:20:19.942Z,9.00
2019-05-11T02:22:52.380Z,8.96
2019-05-11T02:25:22.125Z,8.92
2019-05-11T02:27:59.949Z,8.96
2019-05-11T02:30:32.313Z,8.93
2019-05-11T02:33:02.348Z,8.87
2019-05-11T02:35:32.861Z,8.88
2019-05-11T02:38:02.961Z,8.90
2019-05-11T02:40:35.784Z,8.92
2019-05-11T02:43:08.026Z,8.89
2019-05-11T02:45:42.721Z,8.89
2019-05-11T02:48:13.259Z,8.92
2019-05-11T02:50:43.985Z,8.92
2019-05-11T02:53:16.462Z,8.83
2019-05-11T02:55:47.579Z,8.79
2019-05-11T02:58:17.924Z,8.87
2019-05-11T03:00:48.493Z,8.84
2019-05-11T03:03:18.068Z,8.83
2019-05-11T03:05:50.675Z,8.79
2019-05-11T03:08:20.452Z,8.79
2019-05-11T03:10:51.542Z,8.79
2019-05-11T03:13:20.996Z,8.83
2019-05-11T03:15:52.957Z,8.80
2019-05-11T03:18:27.750Z,8.77
2019-05-11T03:20:57.789Z,8.79
2019-05-11T03:23:28.519Z,8.74
2019-05-11T03:25:58.451Z,8.70
2019-05-11T03:28:28.135Z,8.74
2019-05-11T03:30:57.974Z,8.73
2019-05-11T03:33:30.124Z,8.74
2019-05-11T03:35:59.932Z,8.73
2019-05-11T03:38:30.534Z,8.73
2019-05-11T03:41:00.668Z,8.74
2019-05-11T03:43:30.257Z,8.74
2019-05-11T03:46:00.385Z,8.70
2019-05-11T03:48:30.170Z,8.69
2019-05-11T03:50:59.821Z,8.72
2019-05-11T03:53:29.993Z,8.78
2019-05-11T03:56:00.006Z,8.72
2019-05-11T03:58:33.191Z,8.73
2019-05-11T04:01:03.137Z,8.73
2019-05-11T04:03:34.176Z,8.83
2019-05-11T04:06:05.699Z,8.82
2019-05-11T04:08:37.685Z,8.87
2019-05-11T04:11:12.961Z,8.91
2019-05-11T04:13:42.851Z,8.87
2019-05-11T04:16:12.935Z,8.93
2019-05-11T04:18:42.840Z,8.97
2019-05-11T04:21:12.757Z,9.01
2019-05-11T04:23:42.445Z,9.00
2019-05-11T04:26:12.234Z,9.00
2019-05-11T04:28:41.899Z,8.97
2019-05-11T04:31:11.613Z,9.08
2019-05-11T04:33:41.474Z,9.08
2019-05-11T04:36:12.115Z,9.10
2019-05-11T04:38:42.324Z,9.05
2019-05-11T04:41:11.952Z,9.07
2019-05-11T04:43:41.637Z,9.08
2019-05-11T04:46:11.714Z,9.10
2019-05-11T04:48:41.368Z,9.11
2019-05-11T04:51:13.054Z,9.13
2019-05-11T04:53:43.441Z,9.09
2019-05-11T04:56:13.030Z,9.16
2019-05-11T04:58:42.876Z,9.13
2019-05-11T05:01:12.826Z,9.11
2019-05-11T05:03:47.655Z,9.18
2019-05-11T05:06:22.576Z,9.19
2019-05-11T05:08:45.549Z,9.21
2019-05-11T05:11:15.683Z,9.17
2019-05-11T05:13:45.339Z,9.22
2019-05-11T05:16:15.065Z,9.28
2019-05-11T05:18:45.311Z,9.34
2019-05-11T05:21:15.214Z,9.40
2019-05-11T05:23:45.451Z,9.36
2019-05-11T05:26:15.662Z,9.32
2019-05-11T05:28:46.125Z,9.39
2019-05-11T05:31:18.484Z,9.47
2019-05-11T05:33:50.461Z,9.47
2019-05-11T05:36:22.675Z,9.43
2019-05-11T05:38:53.277Z,9.41
2019-05-11T05:41:23.297Z,9.45
2019-05-11T05:43:53.058Z,9.50
2019-05-11T05:46:25.626Z,9.43
2019-05-11T05:48:56.460Z,9.44
2019-05-11T05:51:28.825Z,9.53
2019-05-11T05:54:00.868Z,9.52
2019-05-11T05:56:30.692Z,9.52
2019-05-11T05:59:00.354Z,9.59
2019-05-11T06:01:30.468Z,9.62
2019-05-11T06:04:00.719Z,9.56
2019-05-11T06:06:30.338Z,9.54
2019-05-11T06:08:59.876Z,9.58
2019-05-11T06:11:32.546Z,9.63
2019-05-11T06:14:02.548Z,9.66
2019-05-11T06:16:33.516Z,9.57
2019-05-11T06:19:03.655Z,9.60
2019-05-11T06:21:33.846Z,9.67
2019-05-11T06:24:06.484Z,9.64
2019-05-11T06:26:35.569Z,9.59
2019-05-11T06:29:07.338Z,9.62
2019-05-11T06:31:37.051Z,9.58
2019-05-11T06:34:06.782Z,9.56
2019-05-11T06:36:36.962Z,9.50
2019-05-11T06:39:08.968Z,9.53
2019-05-11T06:41:41.167Z,9.66
2019-05-11T06:44:10.849Z,9.62
2019-05-11T06:46:41.126Z,9.87
2019-05-11T06:49:11.259Z,9.87
2019-05-11T06:51:41.063Z,9.87
2019-05-11T06:54:11.418Z,9.94
2019-05-11T06:56:41.272Z,9.88
2019-05-11T06:59:11.123Z,9.85
2019-05-11T07:01:40.722Z,9.97
2019-05-11T07:04:10.900Z,10.07
2019-05-11T07:06:40.792Z,9.95
2019-05-11T07:09:12.054Z,10.06
2019-05-11T07:11:43.680Z,10.26
2019-05-11T07:14:20.610Z,10.26
2019-05-11T07:16:49.896Z,10.28
2019-05-11T07:19:20.012Z,10.32
2019-05-11T07:21:50.069Z,10.30
2019-05-11T07:24:19.846Z,10.38
2019-05-11T07:26:49.624Z,10.51
2019-05-11T07:29:19.740Z,10.51
2019-05-11T07:31:51.873Z,10.35
2019-05-11T07:34:23.971Z,10.16
2019-05-11T07:36:54.010Z,10.30
2019-05-11T07:39:23.958Z,10.52
2019-05-11T07:41:58.955Z,10.52
2019-05-11T07:44:38.673Z,10.46
2019-05-11T07:47:07.999Z,10.55
2019-05-11T07:49:38.456Z,11.56
2019-05-11T07:52:08.528Z,13.11
2019-05-11T07:54:40.794Z,13.76
2019-05-11T07:57:11.267Z,14.88
2019-05-11T07:59:41.377Z,15.02
2019-05-11T08:02:12.547Z,14.63
2019-05-11T08:04:48.142Z,14.88
2019-05-11T08:07:22.560Z,16.01
2019-05-11T08:09:53.381Z,15.85
2019-05-11T08:12:23.852Z,15.83
2019-05-11T08:15:02.917Z,15.23
2019-05-11T08:17:25.804Z,14.25
2019-05-11T08:19:57.915Z,14.11
2019-05-11T08:22:28.432Z,13.45
2019-05-11T08:25:00.435Z,13.13
2019-05-11T08:27:30.689Z,13.02
2019-05-11T08:30:00.904Z,13.01
2019-05-11T08:32:30.584Z,13.18
2019-05-11T08:35:00.654Z,13.07
2019-05-11T08:37:30.379Z,13.25
2019-05-11T08:40:00.199Z,13.40
2019-05-11T08:42:30.115Z,13.53
2019-05-11T08:45:16.120Z,13.82
2019-05-11T08:47:32.666Z,13.78
2019-05-11T08:50:03.122Z,13.76
2019-05-11T08:52:33.990Z,13.73
2019-05-11T08:55:03.817Z,13.56
2019-05-11T08:57:34.337Z,13.28
2019-05-11T09:00:04.576Z,13.23
2019-05-11T09:02:34.402Z,13.18
2019-05-11T09:05:04.465Z,13.00
2019-05-11T09:07:34.714Z,12.82
2019-05-11T09:10:04.465Z,12.40
2019-05-11T09:12:34.517Z,12.28
2019-05-11T09:15:04.842Z,12.19
2019-05-11T09:17:38.343Z,12.29
2019-05-11T09:20:08.960Z,12.41
2019-05-11T09:22:44.676Z,12.30
2019-05-11T09:25:15.167Z,12.21
2019-05-11T09:27:44.960Z,12.52
2019-05-11T09:30:18.391Z,12.22
2019-05-11T09:32:47.951Z,12.41
2019-05-11T09:35:19.227Z,12.60
2019-05-11T09:37:48.830Z,12.29
2019-05-11T09:40:19.223Z,10.71
2019-05-11T09:42:49.469Z,12.44
2019-05-11T09:45:19.089Z,12.82
2019-05-11T09:47:49.018Z,12.61
2019-05-11T09:50:18.974Z,12.55
2019-05-11T09:52:49.257Z,12.45
2019-05-11T09:55:19.437Z,12.42
2019-05-11T09:57:50.078Z,12.36
2019-05-11T10:00:20.318Z,12.16
2019-05-11T10:02:50.327Z,12.12
2019-05-11T10:05:21.618Z,12.18
2019-05-11T10:07:51.518Z,12.19
2019-05-11T10:10:21.296Z,12.18
2019-05-11T10:12:52.945Z,12.12
2019-05-11T10:15:23.552Z,12.03
2019-05-11T10:17:55.991Z,11.73
2019-05-11T10:20:28.481Z,12.23
2019-05-11T10:22:59.264Z,12.21
2019-05-11T10:25:29.520Z,12.38
2019-05-11T10:27:59.214Z,12.53
2019-05-11T10:30:29.472Z,11.92
2019-05-11T10:33:01.730Z,12.29
2019-05-11T10:35:31.662Z,12.29
2019-05-11T10:38:01.797Z,12.47
2019-05-11T10:40:32.252Z,11.99
2019-05-11T10:43:01.944Z,11.96
2019-05-11T10:45:31.673Z,11.73
2019-05-11T10:48:01.991Z,11.93
2019-05-11T10:50:32.494Z,12.42
2019-05-11T10:53:02.167Z,11.91
2019-05-11T10:55:32.698Z,12.17
2019-05-11T10:58:02.968Z,12.42
2019-05-11T11:00:33.398Z,12.53
2019-05-11T11:03:03.956Z,12.60
2019-05-11T11:05:38.440Z,12.59
2019-05-11T11:08:08.466Z,12.64
2019-05-11T11:10:38.285Z,12.60
2019-05-11T11:13:09.903Z,12.34
2019-05-11T11:15:39.703Z,12.53
2019-05-11T11:18:09.318Z,12.78
2019-05-11T11:20:41.512Z,12.65
2019-05-11T11:23:11.466Z,12.79
2019-05-11T11:25:41.597Z,12.89
2019-05-11T11:28:11.536Z,12.88
2019-05-11T11:30:41.389Z,12.80
2019-05-11T11:33:12.568Z,12.85
2019-05-11T11:35:43.621Z,13.09
2019-05-11T11:38:13.332Z,13.23
2019-05-11T11:40:43.120Z,13.24
2019-05-11T11:43:17.895Z,13.03
2019-05-11T11:45:49.686Z,13.14
2019-05-11T11:48:19.981Z,13.18
2019-05-11T11:50:52.287Z,12.99
2019-05-11T11:53:22.715Z,13.04
2019-05-11T11:55:53.822Z,13.07
2019-05-11T11:58:27.542Z,12.86
2019-05-11T12:00:58.668Z,12.63
2019-05-11T12:03:28.853Z,12.40
2019-05-11T12:05:59.125Z,12.76
2019-05-11T12:08:31.965Z,12.93
2019-05-11T12:11:03.391Z,13.08
2019-05-11T12:13:34.511Z,12.97
2019-05-11T12:16:07.551Z,13.18
2019-05-11T12:18:38.091Z,12.59
2019-05-11T12:21:08.497Z,13.01
2019-05-11T12:23:38.579Z,13.25
2019-05-11T12:26:08.679Z,13.37
2019-05-11T12:28:38.993Z,13.15
2019-05-11T12:31:10.091Z,13.42
2019-05-11T12:33:41.684Z,13.41
2019-05-11T12:36:13.522Z,13.56
2019-05-11T12:38:43.795Z,13.67
2019-05-11T12:41:13.736Z,13.50
2019-05-11T12:43:45.085Z,13.41
2019-05-11T12:46:15.669Z,13.12
2019-05-11T12:48:49.105Z,13.47
2019-05-11T12:51:38.424Z,13.27
2019-05-11T12:54:09.779Z,13.48
2019-05-11T12:56:44.012Z,13.48
2019-05-11T12:59:14.355Z,13.58
2019-05-11T13:01:44.042Z,13.69
2019-05-11T13:04:14.005Z,13.28
2019-05-11T13:06:45.140Z,13.46
2019-05-11T13:09:14.900Z,13.64
2019-05-11T13:11:45.627Z,13.89
2019-05-11T13:14:18.464Z,13.84
2019-05-11T13:16:49.216Z,13.39
2019-05-11T13:19:19.957Z,13.28
2019-05-11T13:21:50.787Z,13.38
2019-05-11T13:24:22.393Z,13.30
2019-05-11T13:26:53.683Z,13.73
2019-05-11T13:29:24.083Z,13.75
2019-05-11T13:31:54.076Z,13.83
2019-05-11T13:34:30.802Z,13.68
2019-05-11T13:36:58.463Z,13.87
2019-05-11T13:39:28.635Z,13.98
2019-05-11T13:41:58.543Z,13.88
2019-05-11T13:44:28.211Z,13.89
2019-05-11T13:46:58.828Z,13.94
2019-05-11T13:49:32.466Z,13.94
2019-05-11T13:52:02.179Z,13.63
2019-05-11T13:54:33.631Z,13.74
2019-05-11T13:57:03.568Z,13.85
2019-05-11T13:59:33.841Z,13.88
2019-05-11T14:02:03.581Z,13.88
2019-05-11T14:04:33.981Z,13.60
2019-05-11T14:07:03.661Z,13.78
2019-05-11T14:09:33.387Z,13.51
2019-05-11T14:12:09.286Z,13.44
2019-05-11T14:14:40.015Z,13.66
2019-05-11T14:17:09.573Z,13.69
2019-05-11T14:19:40.069Z,13.87
2019-05-11T14:22:09.850Z,14.07
2019-05-11T14:24:39.856Z,14.12
2019-05-11T14:27:09.860Z,14.04
2019-05-11T14:29:39.947Z,13.78
2019-05-11T14:32:10.340Z,13.62
2019-05-11T14:34:40.580Z,13.86
2019-05-11T14:37:10.644Z,13.86
2019-05-11T14:39:40.246Z,13.88
2019-05-11T14:42:10.390Z,13.81
2019-05-11T14:44:40.831Z,13.78
2019-05-11T14:47:11.131Z,13.49
2019-05-11T14:49:41.201Z,13.54
2019-05-11T14:52:11.042Z,13.87
2019-05-11T14:54:41.220Z,14.32
2019-05-11T14:57:12.109Z,14.59
2019-05-11T14:59:42.779Z,14.41
2019-05-11T15:02:30.509Z,13.86
2019-05-11T15:05:03.071Z,13.84
2019-05-11T15:07:33.098Z,13.84
2019-05-11T15:10:07.880Z,13.90
2019-05-11T15:12:39.672Z,13.87
2019-05-11T15:15:10.868Z,13.85
2019-05-11T15:17:42.161Z,13.70
2019-05-11T15:20:17.690Z,13.47
2019-05-11T15:22:50.041Z,13.71
2019-05-11T15:25:21.130Z,13.75
2019-05-11T15:27:51.368Z,13.74
2019-05-11T15:30:21.148Z,13.79
2019-05-11T15:32:51.241Z,13.66
2019-05-11T15:35:21.754Z,13.81
2019-05-11T15:37:52.543Z,13.86
2019-05-11T15:40:27.661Z,13.66
2019-05-11T15:42:58.620Z,13.49
2019-05-11T15:45:28.450Z,13.53
2019-05-11T15:47:58.921Z,13.58
2019-05-11T15:50:29.331Z,13.64
2019-05-11T15:52:59.426Z,13.72
2019-05-11T15:55:29.199Z,13.72
2019-05-11T15:57:58.859Z,13.64
2019-05-11T16:00:28.960Z,13.81
2019-05-11T16:02:58.711Z,13.68
2019-05-11T16:05:28.665Z,13.66
2019-05-11T16:08:01.730Z,13.58
2019-05-11T16:10:31.108Z,13.67
2019-05-11T16:13:00.786Z,13.63
2019-05-11T16:15:30.860Z,13.77
2019-05-11T16:18:00.712Z,13.88
2019-05-11T16:20:31.080Z,13.88
2019-05-11T16:23:00.965Z,13.96
2019-05-11T16:25:30.934Z,13.67
2019-05-11T16:28:01.647Z,13.72
2019-05-11T16:30:31.580Z,13.97
2019-05-11T16:33:03.753Z,13.88
2019-05-11T16:35:34.590Z,13.97
2019-05-11T16:38:04.410Z,13.99
2019-05-11T16:40:34.232Z,13.96
2019-05-11T16:43:03.993Z,13.98
2019-05-11T16:45:34.113Z,13.88
2019-05-11T16:48:04.170Z,13.92
2019-05-11T16:50:33.934Z,13.81
2019-05-11T16:53:03.738Z,13.72
2019-05-11T16:55:33.391Z,13.60
2019-05-11T16:58:03.705Z,13.52
2019-05-11T17:00:33.533Z,13.48
2019-05-11T17:03:03.948Z,13.42
2019-05-11T17:05:34.133Z,12.98
2019-05-11T17:08:03.621Z,13.18
2019-05-11T17:10:33.374Z,13.18
2019-05-11T17:13:03.215Z,13.22
2019-05-11T17:15:32.956Z,13.10
2019-05-11T17:18:02.821Z,13.04
2019-05-11T17:20:33.572Z,12.94
2019-05-11T17:23:04.050Z,12.87
2019-05-11T17:25:33.751Z,12.87
2019-05-11T17:28:06.791Z,12.97
2019-05-11T17:30:35.026Z,12.79
2019-05-11T17:33:05.136Z,12.68
2019-05-11T17:35:35.012Z,12.59
2019-05-11T17:38:05.028Z,12.57
2019-05-11T17:40:35.118Z,12.41
2019-05-11T17:43:09.038Z,12.40
2019-05-11T17:45:39.585Z,12.40
2019-05-11T17:48:09.548Z,12.38
2019-05-11T17:50:39.126Z,12.30
2019-05-11T17:53:09.396Z,12.29
2019-05-11T17:55:41.320Z,12.34
2019-05-11T17:58:11.678Z,12.34
2019-05-11T18:00:41.833Z,12.35
2019-05-11T18:03:12.773Z,12.14
2019-05-11T18:05:43.283Z,12.09
2019-05-11T18:08:13.291Z,12.08
2019-05-11T18:10:47.899Z,11.97
2019-05-11T18:13:18.550Z,11.98
2019-05-11T18:15:49.397Z,12.08
2019-05-11T18:18:19.895Z,11.99
2019-05-11T18:20:50.929Z,12.07
2019-05-11T18:23:20.708Z,11.99
2019-05-11T18:25:50.658Z,11.95
2019-05-11T18:28:20.357Z,12.00
2019-05-11T18:30:50.742Z,12.01
2019-05-11T18:33:22.779Z,11.98
2019-05-11T18:35:53.157Z,11.97
2019-05-11T18:38:23.407Z,11.95
2019-05-11T18:40:53.538Z,11.87
2019-05-11T18:43:24.890Z,11.89
2019-05-11T18:45:58.088Z,11.87
2019-05-11T18:48:28.931Z,11.82
2019-05-11T18:50:59.327Z,11.74
2019-05-11T18:53:29.180Z,11.68
2019-05-11T18:55:59.305Z,11.68
2019-05-11T18:58:29.016Z,11.68
2019-05-11T19:00:59.364Z,11.67
2019-05-11T19:03:29.062Z,11.61
2019-05-11T19:06:00.981Z,11.57
2019-05-11T19:08:38.572Z,11.55
2019-05-11T19:11:11.527Z,11.53
2019-05-11T19:13:42.325Z,11.47
2019-05-11T19:16:13.754Z,11.52
2019-05-11T19:18:47.851Z,11.38
2019-05-11T19:21:18.224Z,11.42
2019-05-11T19:23:48.749Z,11.39
2019-05-11T19:26:19.484Z,11.45
2019-05-11T19:28:50.533Z,11.49
2019-05-11T19:31:20.445Z,11.45
2019-05-11T19:33:50.429Z,11.45
2019-05-11T19:36:20.135Z,11.38
2019-05-11T19:38:52.271Z,11.39
2019-05-11T19:41:23.238Z,11.30
2019-05-11T19:43:52.958Z,11.31
2019-05-11T19:46:22.872Z,11.19
2019-05-11T19:48:52.949Z,11.20
2019-05-11T19:51:24.164Z,11.22
2019-05-11T19:53:54.704Z,11.20
2019-05-11T19:56:24.576Z,11.08
2019-05-11T19:58:57.971Z,11.10
2019-05-11T20:01:29.575Z,11.07
2019-05-11T20:04:00.155Z,11.08
2019-05-11T20:06:30.998Z,11.10
2019-05-11T20:09:01.773Z,11.10
2019-05-11T20:11:32.547Z,11.06
2019-05-11T20:14:02.970Z,11.05
2019-05-11T20:16:32.828Z,11.06
2019-05-11T20:19:02.806Z,11.00
2019-05-11T20:21:33.211Z,11.00
2019-05-11T20:24:03.218Z,11.06
2019-05-11T20:26:33.642Z,11.03
2019-05-11T20:29:03.951Z,11.00
2019-05-11T20:31:33.985Z,11.00
2019-05-11T20:34:10.435Z,11.01
2019-05-11T20:36:41.194Z,10.97
2019-05-11T20:39:12.382Z,10.90
2019-05-11T20:41:44.193Z,10.90
2019-05-11T20:44:14.775Z,10.85
2019-05-11T20:46:44.865Z,10.84
2019-05-11T20:49:15.539Z,10.86
2019-05-11T20:51:48.474Z,10.86
2019-05-11T20:54:19.417Z,10.82
2019-05-11T20:56:50.136Z,10.81
2019-05-11T20:59:21.172Z,10.82
2019-05-11T21:01:51.711Z,10.75
2019-05-11T21:04:22.018Z,10.70
2019-05-11T21:06:53.492Z,10.71
2019-05-11T21:09:24.618Z,10.71
2019-05-11T21:11:54.987Z,10.67
2019-05-11T21:14:25.012Z,10.66
2019-05-11T21:16:54.884Z,10.65
2019-05-11T21:19:24.603Z,10.62
2019-05-11T21:21:55.136Z,9.95
2019-05-11T21:24:24.878Z,10.61
2019-05-11T21:26:54.634Z,10.60
2019-05-11T21:29:24.687Z,10.54
2019-05-11T21:31:55.201Z,10.50
2019-05-11T21:34:25.084Z,10.48
2019-05-11T21:36:55.068Z,10.45
2019-05-11T21:39:25.525Z,10.42
2019-05-11T21:41:55.235Z,10.45
2019-05-11T21:44:25.180Z,10.46
2019-05-11T21:46:54.829Z,10.52
2019-05-11T21:49:24.596Z,10.50
2019-05-11T21:52:04.206Z,10.47
2019-05-11T21:54:30.024Z,10.45
2019-05-11T21:56:57.927Z,10.42
2019-05-11T21:59:28.223Z,10.44
2019-05-11T22:01:57.847Z,10.44
2019-05-11T22:04:28.495Z,10.40
2019-05-11T22:06:59.306Z,10.37
2019-05-11T22:09:29.205Z,10.33
2019-05-11T22:11:58.878Z,10.30
2019-05-11T22:14:29.950Z,10.33
2019-05-11T22:17:02.450Z,10.39
2019-05-11T22:19:32.153Z,10.36
2019-05-11T22:22:02.329Z,10.34
2019-05-11T22:24:32.759Z,10.27
2019-05-11T22:27:02.758Z,10.25
2019-05-11T22:29:32.455Z,10.24
2019-05-11T22:32:07.682Z,10.20
2019-05-11T22:34:37.831Z,10.15
2019-05-11T22:37:08.742Z,10.04
2019-05-11T22:39:38.734Z,9.97
2019-05-11T22:42:08.999Z,9.93
2019-05-11T22:44:38.885Z,9.86
2019-05-11T22:47:09.058Z,9.83
2019-05-11T22:49:39.365Z,9.80
2019-05-11T22:52:09.335Z,9.77
2019-05-11T22:54:39.219Z,9.71
2019-05-11T22:57:11.694Z,9.68
2019-05-11T22:59:42.013Z,9.65
2019-05-11T23:02:11.543Z,9.61
2019-05-11T23:04:41.702Z,9.64
2019-05-11T23:07:15.497Z,9.66
2019-05-11T23:09:45.514Z,9.66
2019-05-11T23:12:18.207Z,9.61
2019-05-11T23:14:50.642Z,9.61
2019-05-11T23:17:20.714Z,9.60
2019-05-11T23:19:52.127Z,9.59
2019-05-11T23:22:23.194Z,9.64
2019-05-11T23:24:53.889Z,9.70
2019-05-11T23:27:24.423Z,9.66
2019-05-11T23:29:54.667Z,9.77
2019-05-11T23:32:26.081Z,9.84
2019-05-11T23:34:57.364Z,9.84
2019-05-11T23:37:27.930Z,9.80
2019-05-11T23:39:58.489Z,9.70
2019-05-11T23:42:30.960Z,9.64
2019-05-11T23:45:01.548Z,9.69
2019-05-11T23:47:32.896Z,9.71
2019-05-11T23:50:03.240Z,9.70
2019-05-11T23:52:33.682Z,9.64
2019-05-11T23:55:04.548Z,9.66
2019-05-11T23:57:34.241Z,9.61
